sensor_id;sensor_type;location;lat;lon;timestamp;P1;durP1;ratioP1;P2;durP2;ratioP2
73954;SDS011;62306;52.516;13.290;2023-02-28T00:01:08;14.32;;;5.10;;
73954;SDS011;62306;52.516;13.290;2023-02-28T00:03:35;12.32;;;4.93;;
73954;SDS011;62306;52.516;13.290;2023-02-28T00:06:02;10.15;;;4.90;;
73954;SDS011;62306;52.516;13.290;2023-02-28T00:08:31;11.95;;;4.63;;
73954;SDS011;62306;52.516;13.290;2023-02-28T00:11:00;11.55;;;5.10;;
73954;SDS011;62306;52.516;13.290;2023-02-28T00:13:28;12.32;;;4.68;;
73954;SDS011;62306;52.516;13.290;2023-02-28T00:15:59;7.70;;;4.03;;
73954;SDS011;62306;52.516;13.290;2023-02-28T00:18:26;9.55;;;4.53;;
73954;SDS011;62306;52.516;13.290;2023-02-28T00:20:53;12.05;;;4.65;;
73954;SDS011;62306;52.516;13.290;2023-02-28T00:23:20;12.55;;;4.43;;
73954;SDS011;62306;52.516;13.290;2023-02-28T00:25:48;7.93;;;4.30;;
73954;SDS011;62306;52.516;13.290;2023-02-28T00:28:16;8.98;;;3.80;;
73954;SDS011;62306;52.516;13.290;2023-02-28T00:30:43;8.57;;;3.92;;
73954;SDS011;62306;52.516;13.290;2023-02-28T00:33:10;9.65;;;4.00;;
73954;SDS011;62306;52.516;13.290;2023-02-28T00:35:37;6.93;;;4.15;;
73954;SDS011;62306;52.516;13.290;2023-02-28T00:38:04;8.93;;;3.67;;
73954;SDS011;62306;52.516;13.290;2023-02-28T00:40:31;7.85;;;3.70;;
73954;SDS011;62306;52.516;13.290;2023-02-28T00:43:00;9.25;;;4.25;;
73954;SDS011;62306;52.516;13.290;2023-02-28T00:45:28;9.85;;;3.50;;
73954;SDS011;62306;52.516;13.290;2023-02-28T00:47:55;7.78;;;4.32;;
73954;SDS011;62306;52.516;13.290;2023-02-28T00:50:21;6.63;;;4.38;;
73954;SDS011;62306;52.516;13.290;2023-02-28T00:52:48;12.00;;;5.03;;
73954;SDS011;62306;52.516;13.290;2023-02-28T00:55:15;10.18;;;4.15;;
73954;SDS011;62306;52.516;13.290;2023-02-28T00:57:43;6.00;;;3.35;;
73954;SDS011;62306;52.516;13.290;2023-02-28T01:00:12;8.30;;;3.97;;
73954;SDS011;62306;52.516;13.290;2023-02-28T01:02:39;11.55;;;4.30;;
73954;SDS011;62306;52.516;13.290;2023-02-28T01:05:06;8.65;;;4.43;;
73954;SDS011;62306;52.516;13.290;2023-02-28T01:07:34;9.60;;;5.10;;
73954;SDS011;62306;52.516;13.290;2023-02-28T01:10:01;7.68;;;3.92;;
73954;SDS011;62306;52.516;13.290;2023-02-28T01:12:28;7.35;;;4.03;;
73954;SDS011;62306;52.516;13.290;2023-02-28T01:14:54;8.32;;;4.50;;
73954;SDS011;62306;52.516;13.290;2023-02-28T01:17:23;9.48;;;4.18;;
73954;SDS011;62306;52.516;13.290;2023-02-28T01:19:52;8.98;;;4.07;;
73954;SDS011;62306;52.516;13.290;2023-02-28T01:22:20;8.98;;;4.25;;
73954;SDS011;62306;52.516;13.290;2023-02-28T01:24:47;10.75;;;4.53;;
73954;SDS011;62306;52.516;13.290;2023-02-28T01:27:14;11.45;;;3.95;;
73954;SDS011;62306;52.516;13.290;2023-02-28T01:29:40;9.27;;;3.95;;
73954;SDS011;62306;52.516;13.290;2023-02-28T01:32:07;11.05;;;4.57;;
73954;SDS011;62306;52.516;13.290;2023-02-28T01:34:36;11.25;;;4.47;;
73954;SDS011;62306;52.516;13.290;2023-02-28T01:37:03;10.80;;;4.63;;
73954;SDS011;62306;52.516;13.290;2023-02-28T01:39:30;9.15;;;4.28;;
73954;SDS011;62306;52.516;13.290;2023-02-28T01:41:57;13.40;;;4.45;;
73954;SDS011;62306;52.516;13.290;2023-02-28T01:47:25;7.57;;;4.30;;
73954;SDS011;62306;52.516;13.290;2023-02-28T01:49:56;12.48;;;4.82;;
73954;SDS011;62306;52.516;13.290;2023-02-28T01:52:24;10.25;;;4.82;;
73954;SDS011;62306;52.516;13.290;2023-02-28T01:54:53;9.27;;;4.65;;
73954;SDS011;62306;52.516;13.290;2023-02-28T01:57:23;9.85;;;4.53;;
73954;SDS011;62306;52.516;13.290;2023-02-28T01:59:55;9.70;;;4.30;;
73954;SDS011;62306;52.516;13.290;2023-02-28T02:02:25;7.25;;;4.18;;
73954;SDS011;62306;52.516;13.290;2023-02-28T02:04:54;11.52;;;4.72;;
73954;SDS011;62306;52.516;13.290;2023-02-28T02:09:59;9.10;;;4.53;;
73954;SDS011;62306;52.516;13.290;2023-02-28T02:12:29;9.30;;;4.57;;
73954;SDS011;62306;52.516;13.290;2023-02-28T02:15:19;7.22;;;4.25;;
73954;SDS011;62306;52.516;13.290;2023-02-28T02:17:52;9.88;;;4.60;;
73954;SDS011;62306;52.516;13.290;2023-02-28T02:23:25;9.88;;;4.65;;
73954;SDS011;62306;52.516;13.290;2023-02-28T02:26:16;9.85;;;4.60;;
73954;SDS011;62306;52.516;13.290;2023-02-28T02:29:18;9.82;;;4.43;;
73954;SDS011;62306;52.516;13.290;2023-02-28T02:35:12;9.70;;;4.80;;
73954;SDS011;62306;52.516;13.290;2023-02-28T02:37:42;10.50;;;5.15;;
73954;SDS011;62306;52.516;13.290;2023-02-28T02:40:14;10.60;;;5.30;;
73954;SDS011;62306;52.516;13.290;2023-02-28T02:42:47;10.45;;;5.43;;
73954;SDS011;62306;52.516;13.290;2023-02-28T02:45:18;9.07;;;4.90;;
73954;SDS011;62306;52.516;13.290;2023-02-28T02:47:50;7.75;;;4.55;;
73954;SDS011;62306;52.516;13.290;2023-02-28T02:50:20;11.63;;;5.55;;
73954;SDS011;62306;52.516;13.290;2023-02-28T02:52:53;13.80;;;5.20;;
73954;SDS011;62306;52.516;13.290;2023-02-28T02:55:22;13.32;;;5.00;;
73954;SDS011;62306;52.516;13.290;2023-02-28T02:57:51;7.13;;;4.60;;
73954;SDS011;62306;52.516;13.290;2023-02-28T03:00:22;11.52;;;5.80;;
73954;SDS011;62306;52.516;13.290;2023-02-28T03:02:52;13.15;;;4.78;;
73954;SDS011;62306;52.516;13.290;2023-02-28T03:05:25;9.90;;;5.10;;
73954;SDS011;62306;52.516;13.290;2023-02-28T03:07:53;9.73;;;5.38;;
73954;SDS011;62306;52.516;13.290;2023-02-28T03:10:27;10.50;;;5.55;;
73954;SDS011;62306;52.516;13.290;2023-02-28T03:13:00;12.18;;;5.38;;
73954;SDS011;62306;52.516;13.290;2023-02-28T03:15:50;10.70;;;5.15;;
73954;SDS011;62306;52.516;13.290;2023-02-28T03:18:30;10.25;;;5.60;;
73954;SDS011;62306;52.516;13.290;2023-02-28T03:21:06;11.02;;;5.30;;
73954;SDS011;62306;52.516;13.290;2023-02-28T03:23:42;10.95;;;5.45;;
73954;SDS011;62306;52.516;13.290;2023-02-28T03:26:16;11.32;;;5.88;;
73954;SDS011;62306;52.516;13.290;2023-02-28T03:28:50;13.82;;;5.68;;
73954;SDS011;62306;52.516;13.290;2023-02-28T03:31:25;9.85;;;5.22;;
73954;SDS011;62306;52.516;13.290;2023-02-28T03:33:58;12.18;;;5.85;;
73954;SDS011;62306;52.516;13.290;2023-02-28T03:39:02;9.50;;;4.93;;
73954;SDS011;62306;52.516;13.290;2023-02-28T03:41:35;9.48;;;5.00;;
73954;SDS011;62306;52.516;13.290;2023-02-28T03:44:05;13.93;;;5.68;;
73954;SDS011;62306;52.516;13.290;2023-02-28T03:46:37;12.63;;;5.95;;
73954;SDS011;62306;52.516;13.290;2023-02-28T03:49:08;18.17;;;6.10;;
73954;SDS011;62306;52.516;13.290;2023-02-28T03:51:42;13.38;;;5.55;;
73954;SDS011;62306;52.516;13.290;2023-02-28T03:54:12;13.13;;;6.32;;
73954;SDS011;62306;52.516;13.290;2023-02-28T03:59:16;11.68;;;5.25;;
73954;SDS011;62306;52.516;13.290;2023-02-28T04:04:15;10.60;;;5.57;;
73954;SDS011;62306;52.516;13.290;2023-02-28T04:06:44;9.23;;;5.53;;
73954;SDS011;62306;52.516;13.290;2023-02-28T04:09:12;13.80;;;6.05;;
73954;SDS011;62306;52.516;13.290;2023-02-28T04:11:41;8.98;;;5.25;;
73954;SDS011;62306;52.516;13.290;2023-02-28T04:14:10;13.40;;;6.03;;
73954;SDS011;62306;52.516;13.290;2023-02-28T04:16:39;13.25;;;5.95;;
73954;SDS011;62306;52.516;13.290;2023-02-28T04:19:08;12.35;;;6.00;;
73954;SDS011;62306;52.516;13.290;2023-02-28T04:21:37;10.45;;;5.53;;
73954;SDS011;62306;52.516;13.290;2023-02-28T04:24:06;13.48;;;5.70;;
73954;SDS011;62306;52.516;13.290;2023-02-28T04:26:39;12.80;;;6.35;;
73954;SDS011;62306;52.516;13.290;2023-02-28T04:29:06;13.93;;;6.03;;
73954;SDS011;62306;52.516;13.290;2023-02-28T04:31:33;11.93;;;6.05;;
73954;SDS011;62306;52.516;13.290;2023-02-28T04:34:00;13.60;;;6.22;;
73954;SDS011;62306;52.516;13.290;2023-02-28T04:36:28;15.48;;;6.72;;
73954;SDS011;62306;52.516;13.290;2023-02-28T04:38:55;14.50;;;6.50;;
73954;SDS011;62306;52.516;13.290;2023-02-28T04:41:24;19.52;;;6.07;;
73954;SDS011;62306;52.516;13.290;2023-02-28T04:43:51;13.70;;;6.00;;
73954;SDS011;62306;52.516;13.290;2023-02-28T04:46:19;13.93;;;6.60;;
73954;SDS011;62306;52.516;13.290;2023-02-28T04:48:46;13.90;;;6.53;;
73954;SDS011;62306;52.516;13.290;2023-02-28T04:51:13;14.00;;;6.20;;
73954;SDS011;62306;52.516;13.290;2023-02-28T04:53:42;15.50;;;7.07;;
73954;SDS011;62306;52.516;13.290;2023-02-28T04:56:10;12.27;;;5.90;;
73954;SDS011;62306;52.516;13.290;2023-02-28T04:58:40;15.80;;;6.38;;
73954;SDS011;62306;52.516;13.290;2023-02-28T05:01:15;12.40;;;6.78;;
73954;SDS011;62306;52.516;13.290;2023-02-28T05:03:44;18.58;;;6.82;;
73954;SDS011;62306;52.516;13.290;2023-02-28T05:06:11;11.57;;;6.53;;
73954;SDS011;62306;52.516;13.290;2023-02-28T05:08:38;13.45;;;6.90;;
73954;SDS011;62306;52.516;13.290;2023-02-28T05:11:07;17.17;;;7.22;;
73954;SDS011;62306;52.516;13.290;2023-02-28T05:13:40;17.08;;;6.90;;
73954;SDS011;62306;52.516;13.290;2023-02-28T05:16:06;22.08;;;7.50;;
73954;SDS011;62306;52.516;13.290;2023-02-28T05:18:34;12.00;;;6.85;;
73954;SDS011;62306;52.516;13.290;2023-02-28T05:21:01;15.75;;;7.20;;
73954;SDS011;62306;52.516;13.290;2023-02-28T05:23:28;16.88;;;6.93;;
73954;SDS011;62306;52.516;13.290;2023-02-28T05:25:55;12.10;;;5.93;;
73954;SDS011;62306;52.516;13.290;2023-02-28T05:28:22;13.88;;;6.47;;
73954;SDS011;62306;52.516;13.290;2023-02-28T05:30:51;12.48;;;6.18;;
73954;SDS011;62306;52.516;13.290;2023-02-28T05:33:18;14.57;;;7.32;;
73954;SDS011;62306;52.516;13.290;2023-02-28T05:35:45;18.15;;;7.55;;
73954;SDS011;62306;52.516;13.290;2023-02-28T05:38:11;14.35;;;6.88;;
73954;SDS011;62306;52.516;13.290;2023-02-28T05:40:38;18.52;;;7.28;;
73954;SDS011;62306;52.516;13.290;2023-02-28T05:43:06;15.73;;;7.30;;
73954;SDS011;62306;52.516;13.290;2023-02-28T05:45:36;17.77;;;7.40;;
73954;SDS011;62306;52.516;13.290;2023-02-28T05:48:05;13.27;;;7.57;;
73954;SDS011;62306;52.516;13.290;2023-02-28T05:50:32;16.20;;;6.75;;
73954;SDS011;62306;52.516;13.290;2023-02-28T05:52:59;14.25;;;7.75;;
73954;SDS011;62306;52.516;13.290;2023-02-28T05:55:26;15.98;;;8.48;;
73954;SDS011;62306;52.516;13.290;2023-02-28T05:57:52;15.25;;;7.38;;
73954;SDS011;62306;52.516;13.290;2023-02-28T06:00:20;18.38;;;7.70;;
73954;SDS011;62306;52.516;13.290;2023-02-28T06:02:47;16.45;;;7.43;;
73954;SDS011;62306;52.516;13.290;2023-02-28T06:05:16;17.23;;;7.45;;
73954;SDS011;62306;52.516;13.290;2023-02-28T06:07:44;21.05;;;8.27;;
73954;SDS011;62306;52.516;13.290;2023-02-28T06:10:11;21.02;;;8.80;;
73954;SDS011;62306;52.516;13.290;2023-02-28T06:12:38;21.35;;;8.50;;
73954;SDS011;62306;52.516;13.290;2023-02-28T06:15:06;21.08;;;8.30;;
73954;SDS011;62306;52.516;13.290;2023-02-28T06:17:37;17.52;;;8.13;;
73954;SDS011;62306;52.516;13.290;2023-02-28T06:20:05;16.30;;;8.40;;
73954;SDS011;62306;52.516;13.290;2023-02-28T06:22:34;15.82;;;7.75;;
73954;SDS011;62306;52.516;13.290;2023-02-28T06:25:01;23.38;;;9.07;;
73954;SDS011;62306;52.516;13.290;2023-02-28T06:27:28;18.98;;;8.43;;
73954;SDS011;62306;52.516;13.290;2023-02-28T06:29:56;22.50;;;9.23;;
73954;SDS011;62306;52.516;13.290;2023-02-28T06:32:23;17.40;;;8.80;;
73954;SDS011;62306;52.516;13.290;2023-02-28T06:34:50;20.08;;;9.07;;
73954;SDS011;62306;52.516;13.290;2023-02-28T06:37:18;22.00;;;9.35;;
73954;SDS011;62306;52.516;13.290;2023-02-28T06:39:46;16.85;;;8.45;;
73954;SDS011;62306;52.516;13.290;2023-02-28T06:42:13;22.10;;;9.68;;
73954;SDS011;62306;52.516;13.290;2023-02-28T06:44:40;21.13;;;8.88;;
73954;SDS011;62306;52.516;13.290;2023-02-28T06:47:08;20.80;;;9.60;;
73954;SDS011;62306;52.516;13.290;2023-02-28T06:49:35;23.17;;;8.45;;
73954;SDS011;62306;52.516;13.290;2023-02-28T06:52:02;21.58;;;8.70;;
73954;SDS011;62306;52.516;13.290;2023-02-28T06:54:29;16.65;;;8.57;;
73954;SDS011;62306;52.516;13.290;2023-02-28T06:56:58;24.25;;;9.90;;
73954;SDS011;62306;52.516;13.290;2023-02-28T06:59:25;21.30;;;9.23;;
73954;SDS011;62306;52.516;13.290;2023-02-28T07:01:52;32.78;;;9.75;;
73954;SDS011;62306;52.516;13.290;2023-02-28T07:04:20;18.90;;;9.27;;
73954;SDS011;62306;52.516;13.290;2023-02-28T07:06:47;20.13;;;9.40;;
73954;SDS011;62306;52.516;13.290;2023-02-28T07:09:14;26.20;;;9.02;;
73954;SDS011;62306;52.516;13.290;2023-02-28T07:11:41;24.45;;;9.57;;
73954;SDS011;62306;52.516;13.290;2023-02-28T07:14:10;19.38;;;9.40;;
73954;SDS011;62306;52.516;13.290;2023-02-28T07:16:37;23.45;;;9.02;;
73954;SDS011;62306;52.516;13.290;2023-02-28T07:19:04;23.27;;;9.68;;
73954;SDS011;62306;52.516;13.290;2023-02-28T07:21:30;21.75;;;9.75;;
73954;SDS011;62306;52.516;13.290;2023-02-28T07:23:57;16.17;;;8.85;;
73954;SDS011;62306;52.516;13.290;2023-02-28T07:26:24;24.75;;;8.70;;
73954;SDS011;62306;52.516;13.290;2023-02-28T07:28:51;20.60;;;9.25;;
73954;SDS011;62306;52.516;13.290;2023-02-28T07:31:20;24.55;;;9.07;;
73954;SDS011;62306;52.516;13.290;2023-02-28T07:33:47;21.55;;;8.88;;
73954;SDS011;62306;52.516;13.290;2023-02-28T07:36:15;19.65;;;9.20;;
73954;SDS011;62306;52.516;13.290;2023-02-28T07:38:44;22.33;;;9.30;;
73954;SDS011;62306;52.516;13.290;2023-02-28T07:41:14;22.45;;;9.13;;
73954;SDS011;62306;52.516;13.290;2023-02-28T07:43:41;20.08;;;8.48;;
73954;SDS011;62306;52.516;13.290;2023-02-28T07:46:10;20.40;;;9.32;;
73954;SDS011;62306;52.516;13.290;2023-02-28T07:48:41;20.38;;;8.90;;
73954;SDS011;62306;52.516;13.290;2023-02-28T07:51:08;21.80;;;9.00;;
73954;SDS011;62306;52.516;13.290;2023-02-28T07:53:35;21.70;;;8.48;;
73954;SDS011;62306;52.516;13.290;2023-02-28T07:56:03;21.23;;;9.55;;
73954;SDS011;62306;52.516;13.290;2023-02-28T07:58:30;20.70;;;10.00;;
73954;SDS011;62306;52.516;13.290;2023-02-28T08:00:57;19.23;;;9.02;;
73954;SDS011;62306;52.516;13.290;2023-02-28T08:03:31;22.30;;;8.68;;
73954;SDS011;62306;52.516;13.290;2023-02-28T08:05:59;20.77;;;8.90;;
73954;SDS011;62306;52.516;13.290;2023-02-28T08:08:27;24.50;;;9.88;;
73954;SDS011;62306;52.516;13.290;2023-02-28T08:10:57;18.05;;;7.93;;
73954;SDS011;62306;52.516;13.290;2023-02-28T08:13:25;16.10;;;6.93;;
73954;SDS011;62306;52.516;13.290;2023-02-28T08:15:52;8.93;;;5.30;;
73954;SDS011;62306;52.516;13.290;2023-02-28T08:18:19;14.65;;;5.47;;
73954;SDS011;62306;52.516;13.290;2023-02-28T08:20:47;10.70;;;5.25;;
73954;SDS011;62306;52.516;13.290;2023-02-28T08:23:15;12.20;;;4.78;;
73954;SDS011;62306;52.516;13.290;2023-02-28T08:25:42;4.63;;;3.20;;
73954;SDS011;62306;52.516;13.290;2023-02-28T08:28:09;11.13;;;3.40;;
73954;SDS011;62306;52.516;13.290;2023-02-28T08:30:36;6.65;;;3.97;;
73954;SDS011;62306;52.516;13.290;2023-02-28T08:33:05;9.68;;;4.00;;
73954;SDS011;62306;52.516;13.290;2023-02-28T08:35:32;8.48;;;2.90;;
73954;SDS011;62306;52.516;13.290;2023-02-28T08:38:01;8.45;;;2.58;;
73954;SDS011;62306;52.516;13.290;2023-02-28T08:40:30;3.80;;;2.67;;
73954;SDS011;62306;52.516;13.290;2023-02-28T08:42:57;5.25;;;2.53;;
73954;SDS011;62306;52.516;13.290;2023-02-28T08:45:24;6.95;;;2.92;;
73954;SDS011;62306;52.516;13.290;2023-02-28T08:47:51;7.00;;;2.65;;
73954;SDS011;62306;52.516;13.290;2023-02-28T08:50:20;9.40;;;4.20;;
73954;SDS011;62306;52.516;13.290;2023-02-28T08:52:47;8.15;;;3.92;;
73954;SDS011;62306;52.516;13.290;2023-02-28T08:55:14;8.57;;;3.83;;
73954;SDS011;62306;52.516;13.290;2023-02-28T08:57:43;11.88;;;3.95;;
73954;SDS011;62306;52.516;13.290;2023-02-28T09:00:10;9.05;;;3.72;;
73954;SDS011;62306;52.516;13.290;2023-02-28T09:02:38;6.57;;;3.22;;
73954;SDS011;62306;52.516;13.290;2023-02-28T09:05:06;10.60;;;3.35;;
73954;SDS011;62306;52.516;13.290;2023-02-28T09:07:34;6.30;;;3.05;;
73954;SDS011;62306;52.516;13.290;2023-02-28T09:10:01;5.63;;;3.20;;
73954;SDS011;62306;52.516;13.290;2023-02-28T09:12:28;4.68;;;2.30;;
73954;SDS011;62306;52.516;13.290;2023-02-28T09:15:00;5.93;;;2.53;;
73954;SDS011;62306;52.516;13.290;2023-02-28T09:17:28;5.00;;;2.88;;
73954;SDS011;62306;52.516;13.290;2023-02-28T09:19:55;9.52;;;2.90;;
73954;SDS011;62306;52.516;13.290;2023-02-28T09:22:22;4.90;;;2.42;;
73954;SDS011;62306;52.516;13.290;2023-02-28T09:24:48;3.95;;;2.40;;
73954;SDS011;62306;52.516;13.290;2023-02-28T09:27:15;7.75;;;2.63;;
73954;SDS011;62306;52.516;13.290;2023-02-28T09:29:42;7.53;;;2.75;;
73954;SDS011;62306;52.516;13.290;2023-02-28T09:32:10;5.15;;;2.65;;
73954;SDS011;62306;52.516;13.290;2023-02-28T09:34:37;3.20;;;2.03;;
73954;SDS011;62306;52.516;13.290;2023-02-28T09:37:04;5.47;;;2.25;;
73954;SDS011;62306;52.516;13.290;2023-02-28T09:39:31;5.18;;;2.45;;
73954;SDS011;62306;52.516;13.290;2023-02-28T09:41:58;5.85;;;2.47;;
73954;SDS011;62306;52.516;13.290;2023-02-28T09:44:27;6.32;;;2.58;;
73954;SDS011;62306;52.516;13.290;2023-02-28T09:46:58;6.28;;;2.50;;
73954;SDS011;62306;52.516;13.290;2023-02-28T09:49:34;3.95;;;2.00;;
73954;SDS011;62306;52.516;13.290;2023-02-28T09:52:06;3.30;;;2.40;;
73954;SDS011;62306;52.516;13.290;2023-02-28T09:54:36;6.68;;;2.78;;
73954;SDS011;62306;52.516;13.290;2023-02-28T09:57:06;5.38;;;2.40;;
73954;SDS011;62306;52.516;13.290;2023-02-28T09:59:47;5.85;;;2.53;;
73954;SDS011;62306;52.516;13.290;2023-02-28T10:02:36;6.30;;;2.50;;
73954;SDS011;62306;52.516;13.290;2023-02-28T10:05:37;4.97;;;2.55;;
73954;SDS011;62306;52.516;13.290;2023-02-28T10:08:10;5.63;;;2.03;;
73954;SDS011;62306;52.516;13.290;2023-02-28T10:10:41;4.43;;;2.22;;
73954;SDS011;62306;52.516;13.290;2023-02-28T10:13:15;3.65;;;2.30;;
73954;SDS011;62306;52.516;13.290;2023-02-28T10:15:47;5.18;;;2.80;;
73954;SDS011;62306;52.516;13.290;2023-02-28T10:18:20;5.60;;;2.58;;
73954;SDS011;62306;52.516;13.290;2023-02-28T10:20:51;5.35;;;2.85;;
73954;SDS011;62306;52.516;13.290;2023-02-28T10:23:21;5.85;;;2.55;;
73954;SDS011;62306;52.516;13.290;2023-02-28T10:25:53;4.85;;;2.40;;
73954;SDS011;62306;52.516;13.290;2023-02-28T10:28:24;6.00;;;3.13;;
73954;SDS011;62306;52.516;13.290;2023-02-28T10:30:52;4.80;;;3.13;;
73954;SDS011;62306;52.516;13.290;2023-02-28T10:33:22;4.55;;;2.38;;
73954;SDS011;62306;52.516;13.290;2023-02-28T10:35:52;6.07;;;2.53;;
73954;SDS011;62306;52.516;13.290;2023-02-28T10:38:20;5.15;;;2.55;;
73954;SDS011;62306;52.516;13.290;2023-02-28T10:40:48;5.80;;;2.80;;
73954;SDS011;62306;52.516;13.290;2023-02-28T10:43:20;8.35;;;2.88;;
73954;SDS011;62306;52.516;13.290;2023-02-28T10:45:53;4.95;;;2.70;;
73954;SDS011;62306;52.516;13.290;2023-02-28T10:48:30;8.00;;;2.67;;
73954;SDS011;62306;52.516;13.290;2023-02-28T10:51:01;8.00;;;2.88;;
73954;SDS011;62306;52.516;13.290;2023-02-28T10:53:34;7.32;;;2.88;;
73954;SDS011;62306;52.516;13.290;2023-02-28T10:56:12;6.00;;;3.55;;
73954;SDS011;62306;52.516;13.290;2023-02-28T10:58:50;9.98;;;3.08;;
73954;SDS011;62306;52.516;13.290;2023-02-28T11:01:20;6.45;;;3.25;;
73954;SDS011;62306;52.516;13.290;2023-02-28T11:03:49;9.43;;;3.67;;
73954;SDS011;62306;52.516;13.290;2023-02-28T11:06:21;7.38;;;2.90;;
73954;SDS011;62306;52.516;13.290;2023-02-28T11:08:50;5.65;;;2.63;;
73954;SDS011;62306;52.516;13.290;2023-02-28T11:11:20;11.20;;;3.20;;
73954;SDS011;62306;52.516;13.290;2023-02-28T11:13:50;4.80;;;2.58;;
73954;SDS011;62306;52.516;13.290;2023-02-28T11:16:19;5.47;;;3.10;;
73954;SDS011;62306;52.516;13.290;2023-02-28T11:18:47;5.95;;;2.97;;
73954;SDS011;62306;52.516;13.290;2023-02-28T11:21:17;9.68;;;2.80;;
73954;SDS011;62306;52.516;13.290;2023-02-28T11:23:51;5.53;;;2.67;;
73954;SDS011;62306;52.516;13.290;2023-02-28T11:26:36;4.85;;;2.47;;
73954;SDS011;62306;52.516;13.290;2023-02-28T11:29:14;8.45;;;2.47;;
73954;SDS011;62306;52.516;13.290;2023-02-28T11:31:55;3.22;;;2.72;;
73954;SDS011;62306;52.516;13.290;2023-02-28T11:36:57;11.90;;;3.08;;
73954;SDS011;62306;52.516;13.290;2023-02-28T11:39:26;5.68;;;2.88;;
73954;SDS011;62306;52.516;13.290;2023-02-28T11:42:00;7.80;;;3.15;;
73954;SDS011;62306;52.516;13.290;2023-02-28T11:44:43;11.68;;;3.50;;
73954;SDS011;62306;52.516;13.290;2023-02-28T11:47:28;8.32;;;3.05;;
73954;SDS011;62306;52.516;13.290;2023-02-28T11:50:04;5.53;;;2.92;;
73954;SDS011;62306;52.516;13.290;2023-02-28T11:52:45;12.03;;;4.00;;
73954;SDS011;62306;52.516;13.290;2023-02-28T11:55:19;10.70;;;3.75;;
73954;SDS011;62306;52.516;13.290;2023-02-28T11:57:57;5.68;;;2.90;;
73954;SDS011;62306;52.516;13.290;2023-02-28T12:00:40;6.13;;;2.80;;
73954;SDS011;62306;52.516;13.290;2023-02-28T12:03:26;5.43;;;2.70;;
73954;SDS011;62306;52.516;13.290;2023-02-28T12:06:01;6.97;;;3.45;;
73954;SDS011;62306;52.516;13.290;2023-02-28T12:08:44;7.35;;;3.63;;
73954;SDS011;62306;52.516;13.290;2023-02-28T12:11:19;8.00;;;3.85;;
73954;SDS011;62306;52.516;13.290;2023-02-28T12:13:59;8.60;;;4.00;;
73954;SDS011;62306;52.516;13.290;2023-02-28T12:16:49;9.48;;;2.97;;
73954;SDS011;62306;52.516;13.290;2023-02-28T12:19:26;11.77;;;3.45;;
73954;SDS011;62306;52.516;13.290;2023-02-28T12:22:10;9.93;;;4.38;;
73954;SDS011;62306;52.516;13.290;2023-02-28T12:24:50;6.15;;;3.05;;
73954;SDS011;62306;52.516;13.290;2023-02-28T12:27:29;7.50;;;3.40;;
73954;SDS011;62306;52.516;13.290;2023-02-28T12:30:02;6.78;;;3.40;;
73954;SDS011;62306;52.516;13.290;2023-02-28T12:32:36;6.60;;;3.17;;
73954;SDS011;62306;52.516;13.290;2023-02-28T12:35:06;8.05;;;4.38;;
73954;SDS011;62306;52.516;13.290;2023-02-28T12:37:40;9.82;;;4.82;;
73954;SDS011;62306;52.516;13.290;2023-02-28T12:40:14;7.03;;;3.90;;
73954;SDS011;62306;52.516;13.290;2023-02-28T12:45:13;7.50;;;4.28;;
73954;SDS011;62306;52.516;13.290;2023-02-28T12:47:45;12.45;;;3.72;;
73954;SDS011;62306;52.516;13.290;2023-02-28T12:50:16;15.25;;;7.90;;
73954;SDS011;62306;52.516;13.290;2023-02-28T12:52:46;7.00;;;4.35;;
73954;SDS011;62306;52.516;13.290;2023-02-28T12:55:21;9.68;;;4.32;;
73954;SDS011;62306;52.516;13.290;2023-02-28T12:57:57;10.43;;;5.53;;
73954;SDS011;62306;52.516;13.290;2023-02-28T13:00:32;5.82;;;3.92;;
73954;SDS011;62306;52.516;13.290;2023-02-28T13:03:07;10.93;;;4.60;;
73954;SDS011;62306;52.516;13.290;2023-02-28T13:06:00;7.82;;;3.20;;
73954;SDS011;62306;52.516;13.290;2023-02-28T13:08:50;11.32;;;4.35;;
73954;SDS011;62306;52.516;13.290;2023-02-28T13:11:32;10.60;;;4.72;;
73954;SDS011;62306;52.516;13.290;2023-02-28T13:14:04;10.07;;;4.68;;
73954;SDS011;62306;52.516;13.290;2023-02-28T13:16:48;8.32;;;3.85;;
73954;SDS011;62306;52.516;13.290;2023-02-28T13:19:19;7.65;;;3.65;;
73954;SDS011;62306;52.516;13.290;2023-02-28T13:21:48;7.00;;;3.97;;
73954;SDS011;62306;52.516;13.290;2023-02-28T13:33:19;9.93;;;4.35;;
73954;SDS011;62306;52.516;13.290;2023-02-28T13:35:59;6.50;;;3.67;;
73954;SDS011;62306;52.516;13.290;2023-02-28T13:38:35;4.85;;;3.28;;
73954;SDS011;62306;52.516;13.290;2023-02-28T13:44:11;11.82;;;5.85;;
73954;SDS011;62306;52.516;13.290;2023-02-28T13:49:43;5.93;;;3.30;;
73954;SDS011;62306;52.516;13.290;2023-02-28T13:52:12;9.85;;;3.75;;
73954;SDS011;62306;52.516;13.290;2023-02-28T13:54:51;7.38;;;3.50;;
73954;SDS011;62306;52.516;13.290;2023-02-28T13:57:41;5.40;;;3.30;;
73954;SDS011;62306;52.516;13.290;2023-02-28T14:00:30;8.52;;;3.67;;
73954;SDS011;62306;52.516;13.290;2023-02-28T14:08:52;10.23;;;3.83;;
73954;SDS011;62306;52.516;13.290;2023-02-28T14:11:25;12.13;;;4.43;;
73954;SDS011;62306;52.516;13.290;2023-02-28T14:13:54;10.05;;;3.55;;
73954;SDS011;62306;52.516;13.290;2023-02-28T14:16:23;8.60;;;4.25;;
73954;SDS011;62306;52.516;13.290;2023-02-28T14:18:55;6.95;;;3.45;;
73954;SDS011;62306;52.516;13.290;2023-02-28T14:21:25;6.03;;;3.13;;
73954;SDS011;62306;52.516;13.290;2023-02-28T14:33:13;7.88;;;3.72;;
73954;SDS011;62306;52.516;13.290;2023-02-28T14:35:55;9.40;;;3.85;;
73954;SDS011;62306;52.516;13.290;2023-02-28T14:38:30;9.95;;;3.92;;
73954;SDS011;62306;52.516;13.290;2023-02-28T14:41:03;8.73;;;4.20;;
73954;SDS011;62306;52.516;13.290;2023-02-28T14:43:32;8.15;;;3.65;;
73954;SDS011;62306;52.516;13.290;2023-02-28T14:46:00;7.35;;;3.80;;
73954;SDS011;62306;52.516;13.290;2023-02-28T14:48:29;9.52;;;3.92;;
73954;SDS011;62306;52.516;13.290;2023-02-28T14:50:57;10.20;;;3.88;;
73954;SDS011;62306;52.516;13.290;2023-02-28T14:53:26;12.73;;;3.83;;
73954;SDS011;62306;52.516;13.290;2023-02-28T14:55:55;9.20;;;4.32;;
73954;SDS011;62306;52.516;13.290;2023-02-28T14:58:23;6.35;;;3.45;;
73954;SDS011;62306;52.516;13.290;2023-02-28T15:00:52;7.35;;;3.65;;
73954;SDS011;62306;52.516;13.290;2023-02-28T15:03:21;6.60;;;3.72;;
73954;SDS011;62306;52.516;13.290;2023-02-28T15:05:54;9.63;;;3.33;;
73954;SDS011;62306;52.516;13.290;2023-02-28T15:08:23;5.65;;;3.17;;
73954;SDS011;62306;52.516;13.290;2023-02-28T15:10:54;8.45;;;3.80;;
73954;SDS011;62306;52.516;13.290;2023-02-28T15:13:23;7.95;;;4.20;;
73954;SDS011;62306;52.516;13.290;2023-02-28T15:15:56;8.48;;;4.60;;
73954;SDS011;62306;52.516;13.290;2023-02-28T15:18:29;8.07;;;4.30;;
73954;SDS011;62306;52.516;13.290;2023-02-28T15:21:02;7.55;;;3.25;;
73954;SDS011;62306;52.516;13.290;2023-02-28T15:23:31;5.15;;;3.28;;
73954;SDS011;62306;52.516;13.290;2023-02-28T15:26:01;6.72;;;3.35;;
73954;SDS011;62306;52.516;13.290;2023-02-28T15:28:28;9.57;;;4.00;;
73954;SDS011;62306;52.516;13.290;2023-02-28T15:30:57;6.03;;;3.67;;
73954;SDS011;62306;52.516;13.290;2023-02-28T15:33:26;7.00;;;3.33;;
73954;SDS011;62306;52.516;13.290;2023-02-28T15:36:06;7.25;;;3.85;;
73954;SDS011;62306;52.516;13.290;2023-02-28T15:38:39;5.55;;;3.30;;
73954;SDS011;62306;52.516;13.290;2023-02-28T15:41:20;6.60;;;3.17;;
73954;SDS011;62306;52.516;13.290;2023-02-28T15:43:49;9.73;;;4.30;;